Berge Ishizuchi — 3FQK2 — position and weather

sailwx.info

Track history (hours):
 
Tides and Currents Weather Stations Pressure Air Temp Water Temp Dewpoint Dewpoint Depression Visibility Wind Speed Wind Dir Waves Ship Positions

Berge Ishizuchi

Last reported at 2017-Dec-08 11:05 UTC. Time now 2017-Dec-12 14:17 UTC.
Position N 11°20' W 074°13'.

Length 292 m; draft 17.2 m.

Type: Cargo ship. MMSI: 353562000.

Date/timePositionNaut miles runAvg speedWind from/ knotsBaromVisibWave heightAir tempDewpointWater temp
2017-Dec-08 11:05N 11°20' W 074°13'113.1
2017-Dec-08 11:00N 11°19' W 074°14'713.1
2017-Dec-08 10:27N 11°13' W 074°16'6 2.4
2017-Dec-08 08:03N 11°07' W 074°18'0 0.1
2017-Dec-08 08:00N 11°07' W 074°18'0 0.1
2017-Dec-08 06:48N 11°07' W 074°18'0 0.1
2017-Dec-08 05:18N 11°07' W 074°18'0 1.1
2017-Dec-08 04:59N 11°07' W 074°19'3 5.7
2017-Dec-08 04:27N 11°05' W 074°16'2 0.1
2017-Dec-07 08:00N 11°04' W 074°14'0 0.0
2017-Dec-07 07:30N 11°04' W 074°14'0 0.0
2017-Dec-07 07:00N 11°04' W 074°14'0 0.0
2017-Dec-07 06:30N 11°04' W 074°14'0 0.0
2017-Dec-07 06:00N 11°04' W 074°14'0 0.0
2017-Dec-07 03:09N 11°04' W 074°14'  
Track history (hours):
 
Tides and Currents Weather Stations Pressure Air Temp Water Temp Dewpoint Dewpoint Depression Visibility Wind Speed Wind Dir Waves Ship Positions

Berge Ishizuchi

Last reported at 2017-Dec-08 11:05 UTC. Time now 2017-Dec-12 14:17 UTC.
Position N 11°20' W 074°13'.

Length 292 m; draft 17.2 m.

Type: Cargo ship. MMSI: 353562000.

Date/timePositionNaut miles runAvg speedWind from/ knotsBaromVisibWave heightAir tempDewpointWater temp
2017-Dec-08 11:05N 11°20' W 074°13'113.1
2017-Dec-08 11:00N 11°19' W 074°14'713.1
2017-Dec-08 10:27N 11°13' W 074°16'6 2.4
2017-Dec-08 08:03N 11°07' W 074°18'0 0.1
2017-Dec-08 08:00N 11°07' W 074°18'0 0.1
2017-Dec-08 06:48N 11°07' W 074°18'0 0.1
2017-Dec-08 05:18N 11°07' W 074°18'0 1.1
2017-Dec-08 04:59N 11°07' W 074°19'3 5.7
2017-Dec-08 04:27N 11°05' W 074°16'2 0.1
2017-Dec-07 08:00N 11°04' W 074°14'0 0.0
2017-Dec-07 07:30N 11°04' W 074°14'0 0.0
2017-Dec-07 07:00N 11°04' W 074°14'0 0.0
2017-Dec-07 06:30N 11°04' W 074°14'0 0.0
2017-Dec-07 06:00N 11°04' W 074°14'0 0.0
2017-Dec-07 03:09N 11°04' W 074°14'  

Dump ship's entire track history